Time;durP1;ratioP1;P1;durP2;ratioP2;P2;SDS_P1;SDS_P2;PMS_P1;PMS_P2;Temp;Humidity;BMP_temperature;BMP_pressure;BME280_temperature;BME280_humidity;BME280_pressure;Samples;Min_cycle;Max_cycle;Signal;HPM_P1;HPM_P2
2023/11/22 00:02:05;;;;;;;28.00;12.70;;;;;;;7.43;100.00;99755.38;6188062;28;20047;-73
2023/11/22 00:05:06;;;;;;;26.92;13.23;;;;;;;7.31;100.00;99757.75;6185005;28;20046;-73
2023/11/22 00:08:07;;;;;;;23.80;11.63;;;;;;;7.50;100.00;99761.06;6201418;28;20081;-73
2023/11/22 00:11:09;;;;;;;24.83;11.00;;;;;;;7.43;100.00;99755.38;6200644;28;20055;-76
2023/11/22 00:14:10;;;;;;;22.95;11.48;;;;;;;7.45;100.00;99776.03;6197474;28;21253;-76
2023/11/22 00:17:11;;;;;;;24.25;11.45;;;;;;;7.30;100.00;99766.47;6199064;28;20050;-75
2023/11/22 00:20:12;;;;;;;24.02;11.23;;;;;;;7.30;100.00;99771.66;6185852;28;20043;-76
2023/11/22 00:23:13;;;;;;;24.88;12.10;;;;;;;7.15;100.00;99765.50;6200399;28;20129;-75
2023/11/22 00:26:16;;;;;;;22.63;11.57;;;;;;;7.01;100.00;99767.03;6201438;28;20081;-76
2023/11/22 00:29:17;;;;;;;28.55;11.93;;;;;;;7.24;100.00;99765.03;6201194;28;20061;-75
2023/11/22 00:32:19;;;;;;;25.63;11.20;;;;;;;7.32;100.00;99762.03;6200246;28;20133;-76
2023/11/22 00:35:20;;;;;;;22.40;11.77;;;;;;;7.20;100.00;99758.31;6201448;28;20057;-76
2023/11/22 00:38:21;;;;;;;22.17;10.13;;;;;;;7.28;100.00;99776.94;6200669;28;20054;-76
2023/11/22 00:41:22;;;;;;;21.38;10.40;;;;;;;7.44;100.00;99774.38;6198550;28;20046;-76
2023/11/22 00:44:22;;;;;;;24.63;11.35;;;;;;;7.56;100.00;99772.91;6199679;28;20093;-73
2023/11/22 00:47:26;;;;;;;24.83;12.07;;;;;;;7.49;100.00;99761.97;6200316;28;20518;-73
2023/11/22 00:50:30;;;;;;;18.08;9.50;;;;;;;7.32;100.00;99759.44;6199498;28;20042;-73
2023/11/22 00:53:30;;;;;;;24.95;11.77;;;;;;;7.11;100.00;99762.22;6199754;28;20047;-73
2023/11/22 00:56:32;;;;;;;19.55;9.60;;;;;;;6.98;100.00;99768.94;6200635;28;20077;-72
2023/11/22 00:59:33;;;;;;;19.65;10.15;;;;;;;7.03;100.00;99767.81;6200355;28;20054;-72
2023/11/22 01:02:39;;;;;;;18.50;10.10;;;;;;;6.96;100.00;99774.25;6200898;28;20054;-73
2023/11/22 01:05:40;;;;;;;24.92;10.52;;;;;;;7.23;100.00;99777.16;6200215;28;20065;-73
2023/11/22 01:08:41;;;;;;;18.95;9.93;;;;;;;7.37;100.00;99783.38;6191175;28;20050;-72
2023/11/22 01:11:44;;;;;;;21.73;10.90;;;;;;;7.51;100.00;99780.91;6187577;28;20046;-73
2023/11/22 01:14:46;;;;;;;20.50;9.32;;;;;;;7.18;100.00;99778.31;6184810;28;20415;-75
2023/11/22 01:17:47;;;;;;;22.90;10.65;;;;;;;7.11;100.00;99780.41;6178927;28;20050;-72
2023/11/22 01:20:49;;;;;;;20.98;10.43;;;;;;;7.23;100.00;99765.97;6196077;28;20536;-73
2023/11/22 01:23:50;;;;;;;21.80;9.73;;;;;;;7.18;100.00;99773.97;6190710;28;20711;-73
2023/11/22 01:26:50;;;;;;;23.65;9.68;;;;;;;7.32;100.00;99775.84;6186062;28;20050;-73
2023/11/22 01:29:54;;;;;;;21.95;9.88;;;;;;;7.05;100.00;99767.72;6200191;28;20133;-73
2023/11/22 01:32:55;;;;;;;28.55;11.55;;;;;;;6.89;100.00;99777.22;6190851;28;20050;-73
2023/11/22 01:35:56;;;;;;;23.35;10.20;;;;;;;6.91;100.00;99776.22;6199050;28;20129;-72
2023/11/22 01:38:57;;;;;;;18.52;9.15;;;;;;;6.96;100.00;99768.19;6186506;28;20082;-76
2023/11/22 01:41:59;;;;;;;22.27;9.68;;;;;;;6.98;100.00;99767.22;6190360;28;20054;-72
2023/11/22 01:45:00;;;;;;;20.17;8.98;;;;;;;6.98;100.00;99766.34;6192915;28;20082;-73
2023/11/22 01:48:02;;;;;;;13.95;7.57;;;;;;;7.04;100.00;99763.44;6179662;28;20429;-73
2023/11/22 01:51:04;;;;;;;22.73;10.48;;;;;;;7.01;100.00;99766.22;6192259;28;20070;-73
2023/11/22 01:54:09;;;;;;;22.77;9.13;;;;;;;6.75;100.00;99759.72;6178690;28;20507;-73
2023/11/22 01:57:11;;;;;;;20.17;9.38;;;;;;;7.02;100.00;99767.88;6176582;28;20050;-76
2023/11/22 02:00:15;;;;;;;20.63;9.57;;;;;;;6.96;100.00;99773.38;6181117;28;20069;-76
2023/11/22 02:03:20;;;;;;;22.10;9.98;;;;;;;6.63;100.00;99766.34;6196596;28;20054;-73
2023/11/22 02:06:22;;;;;;;18.70;9.60;;;;;;;6.90;100.00;99771.09;6190458;28;20097;-73
2023/11/22 02:09:23;;;;;;;16.23;8.95;;;;;;;6.85;100.00;99768.72;6193671;28;20086;-74
2023/11/22 02:12:23;;;;;;;19.50;9.18;;;;;;;7.04;100.00;99760.84;6194904;28;20054;-73
2023/11/22 02:15:27;;;;;;;22.48;8.98;;;;;;;6.95;100.00;99756.16;6190439;28;20050;-76
2023/11/22 02:18:29;;;;;;;20.75;9.10;;;;;;;7.09;100.00;99766.66;6176313;28;20061;-76
2023/11/22 02:21:30;;;;;;;18.80;9.55;;;;;;;7.05;100.00;99765.13;6184779;28;20173;-76
2023/11/22 02:24:32;;;;;;;20.05;9.05;;;;;;;7.06;100.00;99775.44;6199218;28;20050;-76
2023/11/22 02:27:33;;;;;;;20.73;8.80;;;;;;;7.00;100.00;99780.09;6199706;28;20054;-76
2023/11/22 02:30:35;;;;;;;17.90;8.88;;;;;;;7.15;100.00;99776.72;6196408;28;20057;-75
2023/11/22 02:33:36;;;;;;;24.10;10.13;;;;;;;7.12;100.00;99795.03;6198513;28;20133;-76
2023/11/22 02:36:42;;;;;;;20.25;9.00;;;;;;;7.09;100.00;99790.00;6198163;28;20087;-76
2023/11/22 02:39:58;;;;;;;20.80;9.27;;;;;;;6.90;100.00;99797.03;6199370;28;20137;-75
2023/11/22 02:43:05;;;;;;;14.70;8.13;;;;;;;6.79;100.00;99794.97;6189082;28;20054;-75
2023/11/22 02:46:06;;;;;;;21.67;10.15;;;;;;;7.12;100.00;99799.38;6195019;28;20473;-76
2023/11/22 02:49:07;;;;;;;17.95;8.55;;;;;;;7.11;100.00;99792.53;6199060;28;20062;-75
2023/11/22 02:52:08;;;;;;;17.63;8.07;;;;;;;6.82;100.00;99787.88;6197899;28;20284;-73
2023/11/22 02:55:09;;;;;;;21.92;8.10;;;;;;;6.72;100.00;99794.44;6199351;28;20145;-72
2023/11/22 02:58:12;;;;;;;18.02;8.02;;;;;;;6.78;100.00;99794.13;6195739;28;20512;-72
2023/11/22 03:01:13;;;;;;;19.77;8.32;;;;;;;6.75;100.00;99803.81;6198949;28;20126;-72
2023/11/22 03:04:14;;;;;;;17.40;8.15;;;;;;;6.75;100.00;99796.88;6198020;28;20074;-73
2023/11/22 03:07:15;;;;;;;19.25;8.52;;;;;;;6.61;100.00;99797.56;6193839;28;20062;-73
2023/11/22 03:10:17;;;;;;;15.45;8.00;;;;;;;6.63;100.00;99803.50;6192260;28;20085;-73
2023/11/22 03:13:18;;;;;;;;;;;;;;;6.52;100.00;99812.72;6196385;28;20059;-72
2023/11/22 03:16:19;;;;;;;17.85;8.23;;;;;;;6.53;100.00;99817.84;6198049;28;19928;-73
2023/11/22 03:19:20;;;;;;;19.52;7.78;;;;;;;6.42;100.00;99823.53;6197379;28;20050;-73
2023/11/22 03:22:24;;;;;;;17.58;7.95;;;;;;;6.60;100.00;99826.16;6197483;28;20414;-73
2023/11/22 03:25:24;;;;;;;14.68;7.60;;;;;;;6.65;100.00;99821.56;6196757;28;20062;-76
2023/11/22 03:28:25;;;;;;;17.40;6.95;;;;;;;6.61;100.00;99826.09;6196780;28;20132;-75
2023/11/22 03:31:29;;;;;;;13.65;7.28;;;;;;;6.59;100.00;99827.06;6198463;28;20145;-75
2023/11/22 03:34:30;;;;;;;18.58;7.53;;;;;;;6.48;100.00;99842.28;6184471;28;20055;-75
2023/11/22 03:37:34;;;;;;;16.63;8.13;;;;;;;6.28;100.00;99846.66;6148860;28;20058;-76
2023/11/22 03:40:35;;;;;;;15.63;7.45;;;;;;;6.39;100.00;99848.75;6152327;28;20506;-76
2023/11/22 03:43:38;;;;;;;24.50;7.45;;;;;;;6.36;100.00;99844.56;6197983;28;20058;-72
2023/11/22 03:46:39;;;;;;;12.07;6.63;;;;;;;6.31;100.00;99850.88;6149952;28;20063;-73
2023/11/22 03:49:40;;;;;;;14.00;6.93;;;;;;;6.31;100.00;99856.03;6173747;28;20064;-73
2023/11/22 03:52:43;;;;;;;13.68;6.43;;;;;;;6.27;100.00;99863.13;6197082;28;20051;-76
2023/11/22 03:55:45;;;;;;;13.93;7.40;;;;;;;6.14;100.00;99862.84;6198371;28;20145;-72
2023/11/22 03:58:45;;;;;;;14.38;7.40;;;;;;;6.18;100.00;99866.16;6179049;28;20128;-74
2023/11/22 04:01:48;;;;;;;14.55;7.63;;;;;;;5.93;100.00;99861.19;6168679;28;20043;-73
2023/11/22 04:04:49;;;;;;;12.65;6.38;;;;;;;5.94;100.00;99871.47;6176538;28;20057;-76
2023/11/22 04:07:51;;;;;;;19.42;7.10;;;;;;;6.02;100.00;99879.78;6191601;28;20046;-76
2023/11/22 04:10:52;;;;;;;13.98;7.40;;;;;;;6.13;100.00;99881.03;6184739;28;20053;-76
2023/11/22 04:13:53;;;;;;;14.27;7.82;;;;;;;5.98;100.00;99883.41;6185617;28;20073;-76
2023/11/22 04:16:54;;;;;;;15.95;7.50;;;;;;;5.99;100.00;99890.28;6180089;28;20055;-75
2023/11/22 04:19:55;;;;;;;16.77;8.20;;;;;;;5.83;100.00;99899.59;6188535;28;20039;-75
2023/11/22 04:22:56;;;;;;;16.77;7.95;;;;;;;5.84;100.00;99916.81;6187416;28;21697;-76
2023/11/22 04:25:58;;;;;;;16.07;8.80;;;;;;;6.00;100.00;99915.25;6185881;28;21711;-73
2023/11/22 04:28:59;;;;;;;14.80;7.53;;;;;;;6.16;100.00;99924.97;6186553;28;20054;-76
2023/11/22 04:32:00;;;;;;;14.50;6.93;;;;;;;5.86;100.00;99927.94;6184775;28;20057;-75
2023/11/22 04:35:00;;;;;;;13.20;6.55;;;;;;;5.99;100.00;99936.03;6182459;28;20552;-76
2023/11/22 04:38:01;;;;;;;21.17;8.50;;;;;;;5.95;100.00;99940.53;6186683;28;20398;-73
2023/11/22 04:41:02;;;;;;;15.43;6.88;;;;;;;6.14;100.00;99943.16;6183478;28;20128;-73
2023/11/22 04:44:04;;;;;;;16.05;7.82;;;;;;;6.14;100.00;99935.38;6182477;28;20050;-73
2023/11/22 04:47:06;;;;;;;16.95;8.63;;;;;;;6.22;100.00;99938.47;6189705;28;20058;-74
2023/11/22 04:50:07;;;;;;;14.88;7.47;;;;;;;6.16;100.00;99946.50;6186731;28;20046;-73
2023/11/22 04:53:11;;;;;;;16.27;7.72;;;;;;;6.14;100.00;99953.50;6187043;28;20722;-73
2023/11/22 04:56:12;;;;;;;15.70;8.55;;;;;;;6.31;100.00;99960.53;6181485;28;20057;-76
2023/11/22 04:59:13;;;;;;;16.08;7.68;;;;;;;6.32;100.00;99953.59;6185339;28;20691;-72
2023/11/22 05:02:13;;;;;;;21.48;7.55;;;;;;;6.49;100.00;99958.88;6173204;28;20054;-72
2023/11/22 05:05:15;;;;;;;19.80;8.20;;;;;;;6.60;100.00;99966.16;6179200;28;20065;-75
2023/11/22 05:08:16;;;;;;;16.50;7.72;;;;;;;6.56;100.00;99973.22;6200580;28;20093;-75
2023/11/22 05:11:17;;;;;;;12.95;6.13;;;;;;;6.43;100.00;99975.53;6200437;28;20046;-73
2023/11/22 05:14:18;;;;;;;15.00;7.18;;;;;;;6.64;100.00;99983.25;6190271;28;20062;-73
2023/11/22 05:17:19;;;;;;;16.77;7.43;;;;;;;6.61;100.00;99979.03;6189566;28;20062;-76
2023/11/22 05:20:20;;;;;;;13.63;6.68;;;;;;;6.37;100.00;99981.00;6198165;28;20070;-76
2023/11/22 05:23:21;;;;;;;16.50;7.65;;;;;;;6.44;100.00;99979.81;6177182;28;20055;-75
2023/11/22 05:26:22;;;;;;;14.13;6.68;;;;;;;6.38;100.00;99989.59;6175118;28;20063;-75
2023/11/22 05:29:26;;;;;;;11.35;6.50;;;;;;;6.35;100.00;99988.00;6175792;28;20050;-75
2023/11/22 05:32:28;;;;;;;12.48;6.55;;;;;;;6.59;100.00;99990.38;6169866;28;20776;-75
2023/11/22 05:35:29;;;;;;;;;;;;;;;6.29;100.00;99990.84;6197779;28;20413;-73
2023/11/22 05:38:30;;;;;;;21.90;11.73;;;;;;;6.36;100.00;99994.88;6156263;28;19926;-73
2023/11/22 05:41:33;;;;;;;12.30;7.28;;;;;;;6.31;100.00;100006.34;6191420;28;20049;-73
2023/11/22 05:44:34;;;;;;;14.25;8.75;;;;;;;6.34;100.00;99995.81;6199205;28;20391;-73
2023/11/22 05:47:35;;;;;;;11.75;6.68;;;;;;;6.27;100.00;100000.44;6199582;28;20058;-72
2023/11/22 05:50:36;;;;;;;5.97;2.97;;;;;;;6.13;100.00;100001.03;6199557;28;20124;-75
2023/11/22 05:53:37;;;;;;;8.25;3.13;;;;;;;6.08;100.00;100010.78;6198088;28;20054;-73
2023/11/22 05:56:38;;;;;;;5.63;3.40;;;;;;;6.00;100.00;99998.16;6198686;28;20413;-72
2023/11/22 05:59:39;;;;;;;6.25;3.35;;;;;;;5.80;100.00;100001.53;6199416;28;20085;-76
2023/11/22 06:02:40;;;;;;;5.90;3.58;;;;;;;5.88;100.00;100014.19;6198570;28;20047;-75
2023/11/22 06:05:43;;;;;;;5.03;2.72;;;;;;;5.99;100.00;100016.34;6198241;28;20046;-72
2023/11/22 06:08:44;;;;;;;7.20;3.55;;;;;;;6.08;100.00;100015.13;6198051;28;20508;-73
2023/11/22 06:11:45;;;;;;;6.05;3.50;;;;;;;6.03;100.00;100031.69;6199062;28;20413;-72
2023/11/22 06:14:46;;;;;;;7.28;4.22;;;;;;;6.18;100.00;100019.84;6198217;28;20050;-73
2023/11/22 06:17:51;;;;;;;10.60;3.83;;;;;;;6.26;100.00;100029.88;6198349;28;20050;-76
2023/11/22 06:20:51;;;;;;;7.60;4.07;;;;;;;6.20;100.00;100028.38;6196234;28;20112;-76
2023/11/22 06:23:57;;;;;;;3.97;3.20;;;;;;;5.74;100.00;100039.81;6197870;28;20054;-76
2023/11/22 06:27:01;;;;;;;4.55;2.83;;;;;;;5.61;100.00;100044.66;6194031;28;20055;-76
2023/11/22 06:30:02;;;;;;;4.53;2.83;;;;;;;5.39;100.00;100040.31;6182680;28;20054;-76
2023/11/22 06:33:07;;;;;;;6.15;2.50;;;;;;;5.33;100.00;100042.31;6173222;28;20129;-76
2023/11/22 06:36:11;;;;;;;4.05;2.35;;;;;;;5.40;100.00;100043.78;6174133;28;20051;-73
2023/11/22 06:39:13;;;;;;;5.47;2.65;;;;;;;5.23;100.00;100047.03;6173864;28;20047;-72
2023/11/22 06:42:14;;;;;;;5.20;2.25;;;;;;;5.25;100.00;100053.81;6174252;28;20047;-72
2023/11/22 06:45:16;;;;;;;4.10;2.05;;;;;;;5.39;99.59;100058.44;6172965;28;20105;-75
2023/11/22 06:48:18;;;;;;;2.75;1.90;;;;;;;5.37;98.96;100060.22;6174245;28;20065;-73
2023/11/22 06:51:18;;;;;;;4.13;2.43;;;;;;;5.58;98.39;100066.31;6172863;28;20054;-72
2023/11/22 06:54:20;;;;;;;5.93;2.85;;;;;;;5.59;98.01;100077.50;6205343;28;20108;-76
2023/11/22 06:57:28;;;;;;;3.55;2.38;;;;;;;5.34;98.17;100075.91;6205453;28;20051;-72
2023/11/22 07:00:29;;;;;;;5.22;2.35;;;;;;;5.28;98.10;100085.66;6172718;28;20057;-75
2023/11/22 07:03:29;;;;;;;2.42;1.83;;;;;;;5.19;98.87;100099.78;6174172;28;20046;-72
2023/11/22 07:06:30;;;;;;;4.70;2.08;;;;;;;5.24;98.17;100098.69;6174079;28;20054;-75
2023/11/22 07:09:32;;;;;;;5.10;1.80;;;;;;;5.22;96.58;100112.59;6172781;28;20390;-72
2023/11/22 07:12:37;;;;;;;4.03;1.38;;;;;;;5.23;95.37;100102.19;6173787;28;20073;-76
2023/11/22 07:15:39;;;;;;;2.15;1.40;;;;;;;5.38;94.03;100112.84;6172912;28;20140;-73
2023/11/22 07:18:40;;;;;;;4.63;1.73;;;;;;;5.32;93.00;100113.91;6205037;28;20050;-73
2023/11/22 07:21:41;;;;;;;1.65;1.40;;;;;;;5.44;91.38;100100.50;6173695;28;20659;-73
2023/11/22 07:24:47;;;;;;;2.30;1.38;;;;;;;5.24;90.92;100108.19;6173650;28;20058;-76
2023/11/22 07:27:48;;;;;;;2.10;1.45;;;;;;;5.41;89.90;100112.72;6205048;28;20051;-76
2023/11/22 07:30:49;;;;;;;1.83;1.08;;;;;;;5.16;88.64;100105.06;6173721;28;20051;-75
2023/11/22 07:33:51;;;;;;;2.33;1.45;;;;;;;5.36;88.48;100105.13;6172409;28;20055;-72
2023/11/22 07:36:52;;;;;;;1.98;1.48;;;;;;;5.45;87.81;100107.34;6173452;28;20465;-76
2023/11/22 07:39:53;;;;;;;1.65;1.15;;;;;;;5.16;87.60;100116.25;6204541;28;20051;-73
2023/11/22 07:42:54;;;;;;;2.93;1.50;;;;;;;5.56;86.95;100119.91;6173477;28;20480;-75
2023/11/22 07:45:55;;;;;;;1.23;1.00;;;;;;;5.48;85.76;100109.00;6172126;28;20054;-75
2023/11/22 07:48:56;;;;;;;1.75;1.30;;;;;;;5.53;84.98;100108.81;6173866;28;20059;-76
2023/11/22 07:51:57;;;;;;;1.38;1.08;;;;;;;5.86;85.18;100120.41;6178075;28;20493;-76
2023/11/22 07:55:03;;;;;;;3.50;1.45;;;;;;;5.82;84.02;100121.44;6209602;28;20051;-76
2023/11/22 07:58:06;;;;;;;2.33;1.42;;;;;;;5.59;83.38;100118.94;6177024;28;20059;-73
2023/11/22 08:01:13;;;;;;;1.40;1.10;;;;;;;5.69;82.78;100122.00;6177856;28;20426;-73
2023/11/22 08:04:14;;;;;;;1.35;1.05;;;;;;;5.68;82.90;100143.59;6177883;28;20559;-75
2023/11/22 08:07:15;;;;;;;1.42;1.27;;;;;;;5.59;82.21;100137.88;6178131;28;20050;-72
2023/11/22 08:10:19;;;;;;;1.95;1.38;;;;;;;5.72;81.63;100145.16;6177716;28;20074;-73
2023/11/22 08:13:22;;;;;;;2.75;1.75;;;;;;;5.70;81.58;100140.03;6177762;28;20081;-72
2023/11/22 08:16:23;;;;;;;1.98;1.35;;;;;;;5.81;80.71;100139.66;6177989;28;20410;-73
2023/11/22 08:19:24;;;;;;;1.85;1.23;;;;;;;5.73;80.38;100137.34;6177370;28;20078;-76
2023/11/22 08:22:28;;;;;;;6.60;1.55;;;;;;;6.27;79.65;100135.19;6176462;28;20505;-76
2023/11/22 08:25:32;;;;;;;2.08;1.38;;;;;;;6.15;79.20;100136.53;6176292;28;20050;-76
2023/11/22 08:28:35;;;;;;;1.75;1.20;;;;;;;6.22;78.33;100139.75;6177571;28;20106;-76
2023/11/22 08:31:39;;;;;;;3.03;1.50;;;;;;;6.38;77.30;100137.31;6177091;28;20054;-75
2023/11/22 08:34:40;;;;;;;2.38;1.77;;;;;;;6.43;76.94;100138.00;6177239;28;20070;-75
2023/11/22 08:37:44;;;;;;;4.80;1.67;;;;;;;6.33;76.06;100145.31;6175993;28;20051;-76
2023/11/22 08:40:47;;;;;;;2.25;1.73;;;;;;;6.33;76.12;100160.00;6208326;28;20054;-75
2023/11/22 08:43:48;;;;;;;2.78;1.70;;;;;;;6.35;75.26;100148.66;6208394;28;20050;-75
2023/11/22 08:46:49;;;;;;;2.90;1.73;;;;;;;6.29;75.10;100156.69;6177139;28;20059;-72
2023/11/22 08:49:52;;;;;;;2.03;1.40;;;;;;;6.13;74.73;100166.84;6175758;28;20085;-72
2023/11/22 08:52:53;;;;;;;3.78;1.70;;;;;;;6.45;74.60;100162.94;6175583;28;20058;-72
2023/11/22 08:55:54;;;;;;;1.48;1.20;;;;;;;6.36;74.89;100171.09;6176888;28;20387;-72
2023/11/22 08:59:00;;;;;;;2.50;1.80;;;;;;;6.31;74.63;100179.97;6207922;28;20054;-72
2023/11/22 09:02:02;;;;;;;2.50;1.60;;;;;;;6.30;74.70;100186.91;6175457;28;20406;-75
2023/11/22 09:05:06;;;;;;;4.95;1.58;;;;;;;6.26;74.16;100174.97;6176547;28;20482;-72
2023/11/22 09:08:13;;;;;;;2.10;1.83;;;;;;;6.36;74.53;100178.88;6175394;28;20418;-72
2023/11/22 09:11:15;;;;;;;2.03;1.83;;;;;;;6.35;74.75;100181.53;6176260;28;20414;-73
2023/11/22 09:14:16;;;;;;;4.88;1.73;;;;;;;6.46;75.18;100179.31;6176699;28;20101;-72
2023/11/22 09:17:17;;;;;;;3.28;1.85;;;;;;;6.58;74.08;100173.63;6176367;28;20059;-72
2023/11/22 09:20:19;;;;;;;3.35;2.13;;;;;;;6.47;73.90;100181.00;6176373;28;20414;-73
2023/11/22 09:23:20;;;;;;;3.88;1.75;;;;;;;6.51;73.88;100177.38;6176471;28;20082;-76
2023/11/22 09:26:21;;;;;;;1.95;1.67;;;;;;;6.51;73.50;100187.75;6174970;28;20121;-73
2023/11/22 09:29:23;;;;;;;6.30;1.77;;;;;;;6.82;72.57;100194.22;6175056;28;20051;-72
2023/11/22 09:32:24;;;;;;;3.00;2.00;;;;;;;6.97;72.05;100190.97;6175723;28;20102;-76
2023/11/22 09:35:29;;;;;;;3.65;1.90;;;;;;;7.19;71.99;100185.66;6176032;28;20055;-75
2023/11/22 09:38:32;;;;;;;2.45;2.05;;;;;;;6.99;71.73;100194.31;6175917;28;20133;-76
2023/11/22 09:41:35;;;;;;;3.00;2.05;;;;;;;7.05;72.52;100193.22;6175682;28;20113;-75
2023/11/22 09:44:38;;;;;;;3.53;1.77;;;;;;;7.17;71.06;100182.28;6175592;28;20516;-72
2023/11/22 09:47:42;;;;;;;4.63;2.22;;;;;;;7.41;71.14;100177.75;6175607;28;20133;-73
2023/11/22 09:51:07;;;;;;;2.33;1.60;;;;;;;7.47;69.68;100185.25;6206638;28;20085;-72
2023/11/22 09:54:14;;;;;;;3.33;1.73;;;;;;;7.37;68.85;100188.31;6175345;28;20059;-76
2023/11/22 09:57:17;;;;;;;2.38;1.83;;;;;;;7.15;68.97;100181.53;6175250;28;20133;-76
2023/11/22 10:00:21;;;;;;;3.50;1.80;;;;;;;7.57;69.85;100190.03;6174222;28;20042;-76
2023/11/22 10:03:29;;;;;;;3.92;2.38;;;;;;;7.66;69.91;100192.19;6206338;28;20051;-73
2023/11/22 10:06:34;;;;;;;3.72;2.38;;;;;;;7.48;69.46;100193.88;6206521;28;20078;-75
2023/11/22 10:09:37;;;;;;;12.25;2.65;;;;;;;7.56;68.68;100186.59;6175354;28;20474;-76
2023/11/22 10:12:40;;;;;;;4.75;2.40;;;;;;;7.31;69.55;100199.00;6205841;28;20054;-73
2023/11/22 10:15:43;;;;;;;4.45;2.33;;;;;;;7.11;69.29;100202.50;6174983;28;20054;-73
2023/11/22 10:18:48;;;;;;;3.22;2.47;;;;;;;7.20;68.97;100195.13;6175046;28;20085;-72
2023/11/22 10:22:02;;;;;;;2.63;2.17;;;;;;;7.47;68.36;100202.56;6174693;28;20051;-73
2023/11/22 10:25:03;;;;;;;3.33;2.10;;;;;;;7.45;68.31;100205.25;6174882;28;20093;-73
2023/11/22 10:28:08;;;;;;;4.95;2.15;;;;;;;7.52;67.93;100199.78;6173365;28;20490;-73
2023/11/22 10:31:12;;;;;;;4.28;2.65;;;;;;;7.19;70.22;100205.59;6174621;28;20050;-73
2023/11/22 10:34:14;;;;;;;10.38;2.55;;;;;;;7.21;69.72;100224.53;6174510;28;20054;-73
2023/11/22 10:37:15;;;;;;;3.35;2.50;;;;;;;7.14;69.71;100218.75;6173283;28;20050;-74
2023/11/22 10:40:16;;;;;;;4.72;3.05;;;;;;;7.30;69.53;100231.06;6174317;28;20074;-72
2023/11/22 10:43:17;;;;;;;11.18;4.00;;;;;;;7.50;68.81;100230.19;6174184;28;20043;-72
2023/11/22 10:46:25;;;;;;;4.63;2.78;;;;;;;7.46;68.95;100235.50;6173205;28;20059;-73
2023/11/22 10:49:26;;;;;;;4.25;2.50;;;;;;;7.47;69.10;100234.59;6174191;28;20047;-76
2023/11/22 10:52:30;;;;;;;3.47;2.08;;;;;;;7.40;68.51;100229.75;6205216;28;20557;-72
2023/11/22 10:55:34;;;;;;;2.65;2.17;;;;;;;7.34;68.11;100243.81;6173058;28;20168;-76
2023/11/22 10:58:44;;;;;;;3.22;2.17;;;;;;;6.94;68.32;100237.81;6174132;28;20054;-76
2023/11/22 11:01:48;;;;;;;6.18;3.28;;;;;;;7.00;70.07;100242.72;6174023;28;20074;-75
2023/11/22 11:04:58;;;;;;;10.30;6.20;;;;;;;7.14;69.42;100242.09;6174372;28;20094;-76
2023/11/22 11:08:13;;;;;;;6.40;4.38;;;;;;;7.30;67.93;100246.63;6172854;28;20502;-75
2023/11/22 11:11:15;;;;;;;4.90;2.78;;;;;;;7.09;68.15;100244.06;6205371;28;20090;-75
2023/11/22 11:14:19;;;;;;;8.50;4.67;;;;;;;7.19;68.80;100245.34;6173931;28;20082;-75
2023/11/22 11:17:23;;;;;;;6.07;4.13;;;;;;;7.30;69.04;100251.81;6174110;28;20051;-75
2023/11/22 11:20:24;;;;;;;3.97;2.65;;;;;;;7.65;67.50;100256.25;6173789;28;20061;-75
2023/11/22 11:23:28;;;;;;;4.63;3.10;;;;;;;7.81;68.12;100261.59;6171734;28;20133;-73
2023/11/22 11:26:34;;;;;;;7.05;3.30;;;;;;;7.77;67.96;100267.84;6204969;28;20054;-73
2023/11/22 11:29:42;;;;;;;4.30;2.95;;;;;;;7.50;67.36;100267.34;6172955;28;20051;-72
2023/11/22 11:32:46;;;;;;;4.95;2.83;;;;;;;7.58;67.22;100277.41;6173407;28;20057;-72
2023/11/22 11:35:49;;;;;;;3.75;2.75;;;;;;;7.83;66.79;100280.56;6173765;28;20421;-75
2023/11/22 11:38:54;;;;;;;7.50;2.83;;;;;;;7.93;66.33;100287.91;6173960;28;20055;-72
2023/11/22 11:42:10;;;;;;;4.70;2.67;;;;;;;7.97;66.81;100284.25;6173549;28;20046;-73
2023/11/22 11:45:11;;;;;;;5.22;2.67;;;;;;;8.06;66.38;100282.09;6172484;28;20109;-72
2023/11/22 11:48:14;;;;;;;4.65;2.92;;;;;;;7.92;66.59;100281.06;6173330;28;20058;-73
2023/11/22 11:51:16;;;;;;;4.68;2.88;;;;;;;7.76;66.55;100283.50;6172126;28;20397;-72
2023/11/22 11:54:19;;;;;;;5.70;2.65;;;;;;;7.34;66.65;100292.31;6204183;28;20514;-73
2023/11/22 11:57:21;;;;;;;6.07;3.15;;;;;;;7.56;67.07;100300.84;6173548;28;20223;-73
2023/11/22 12:00:28;;;;;;;9.40;3.97;;;;;;;7.45;67.21;100303.91;6204452;28;20126;-72
2023/11/22 12:03:31;;;;;;;5.45;3.15;;;;;;;7.24;66.86;100297.88;6204716;28;20105;-75
2023/11/22 12:06:36;;;;;;;4.80;2.15;;;;;;;7.47;66.67;100311.63;6171970;28;20520;-76
2023/11/22 12:09:37;;;;;;;4.97;3.13;;;;;;;7.13;66.56;100318.28;6172260;28;20058;-73
2023/11/22 12:12:39;;;;;;;4.22;2.72;;;;;;;7.14;66.70;100322.53;6172978;28;20086;-72
2023/11/22 12:15:41;;;;;;;4.80;2.50;;;;;;;6.95;65.94;100325.06;6172259;28;20134;-72
2023/11/22 12:18:49;;;;;;;;;;;;;;;7.03;66.05;100335.97;6172572;28;20490;-73
2023/11/22 12:21:53;;;;;;;4.35;2.63;;;;;;;7.32;66.90;100351.25;6172244;28;19929;-73
2023/11/22 12:24:54;;;;;;;6.30;4.07;;;;;;;7.20;67.08;100342.22;6171860;28;20055;-72
2023/11/22 12:27:55;;;;;;;10.05;5.45;;;;;;;7.09;67.53;100340.09;6204582;28;20533;-75
2023/11/22 12:31:07;;;;;;;5.95;3.35;;;;;;;6.73;67.71;100340.66;6173042;28;20082;-75
2023/11/22 12:34:08;;;;;;;4.95;3.13;;;;;;;6.88;67.47;100354.78;6172420;28;20058;-75
2023/11/22 12:37:09;;;;;;;4.95;3.20;;;;;;;6.96;66.24;100360.50;6176264;28;20050;-72
2023/11/22 12:40:13;;;;;;;5.97;3.83;;;;;;;6.65;66.68;100366.06;6176321;28;20058;-72
2023/11/22 12:43:16;;;;;;;4.45;3.00;;;;;;;6.38;66.10;100363.69;6176055;28;20055;-72
2023/11/22 12:46:17;;;;;;;5.10;2.95;;;;;;;6.66;66.73;100370.38;6175864;28;20106;-76
2023/11/22 12:49:18;;;;;;;3.33;2.25;;;;;;;6.64;66.46;100377.34;6175447;28;20149;-73
2023/11/22 12:52:26;;;;;;;5.32;3.53;;;;;;;6.34;66.11;100388.03;6175870;28;20055;-76
2023/11/22 12:55:27;;;;;;;6.28;2.95;;;;;;;5.89;66.78;100388.81;6176129;28;20054;-75
2023/11/22 12:58:30;;;;;;;4.78;3.03;;;;;;;5.50;67.59;100401.38;6176543;28;20059;-75
2023/11/22 13:01:34;;;;;;;6.50;3.63;;;;;;;5.80;67.20;100415.00;6176325;28;20055;-72
2023/11/22 13:04:35;;;;;;;5.80;3.67;;;;;;;5.85;67.02;100413.97;6166988;28;20098;-72
2023/11/22 13:07:36;;;;;;;5.45;3.55;;;;;;;5.82;67.90;100419.22;6176212;28;20080;-75
2023/11/22 13:10:43;;;;;;;4.35;3.22;;;;;;;5.79;67.83;100405.56;6176107;28;20049;-73
2023/11/22 13:13:46;;;;;;;7.60;3.85;;;;;;;5.48;68.00;100419.59;6176503;28;20417;-75
2023/11/22 13:16:47;;;;;;;4.43;3.05;;;;;;;5.41;68.23;100418.91;6176537;28;20061;-76
2023/11/22 13:19:49;;;;;;;8.52;3.92;;;;;;;5.41;68.86;100434.44;6175640;28;20050;-75
2023/11/22 13:22:53;;;;;;;7.25;3.33;;;;;;;5.31;68.66;100437.41;6176403;28;20050;-73
2023/11/22 13:25:54;;;;;;;3.80;2.35;;;;;;;4.88;68.73;100431.03;6174977;28;20058;-72
2023/11/22 13:28:55;;;;;;;4.60;2.83;;;;;;;4.63;68.02;100419.72;6176302;28;20141;-72
2023/11/22 13:31:59;;;;;;;5.78;3.58;;;;;;;4.79;68.94;100429.56;6174910;28;20486;-72
2023/11/22 13:35:00;;;;;;;6.22;2.78;;;;;;;4.63;69.19;100434.38;6176103;28;20086;-72
2023/11/22 13:38:01;;;;;;;5.65;3.22;;;;;;;4.46;70.14;100445.22;6174809;28;20061;-72
2023/11/22 13:41:02;;;;;;;5.43;3.15;;;;;;;4.05;70.27;100434.31;6174921;28;20051;-75
2023/11/22 13:44:04;;;;;;;9.48;4.43;;;;;;;4.25;71.11;100449.28;6175675;28;20046;-73
2023/11/22 13:47:07;;;;;;;4.63;2.92;;;;;;;4.02;70.38;100458.50;6173873;28;20062;-74
2023/11/22 13:50:09;;;;;;;5.93;3.05;;;;;;;3.77;72.00;100462.66;6174372;28;20572;-75
2023/11/22 13:53:10;;;;;;;6.75;3.25;;;;;;;3.93;71.95;100453.63;6174411;28;20548;-73
2023/11/22 13:56:11;;;;;;;4.53;2.87;;;;;;;3.61;72.97;100454.47;6174773;28;20101;-72
2023/11/22 13:59:13;;;;;;;4.85;3.03;;;;;;;3.65;72.89;100443.16;6206496;28;20051;-72
2023/11/22 14:02:14;;;;;;;5.65;3.10;;;;;;;3.65;73.41;100457.81;6174378;28;20050;-72
2023/11/22 14:05:15;;;;;;;5.15;3.58;;;;;;;3.42;73.46;100474.72;6175110;28;20055;-72
2023/11/22 14:08:16;;;;;;;7.72;3.85;;;;;;;3.34;74.01;100461.16;6175430;28;20129;-72
2023/11/22 14:11:20;;;;;;;7.63;4.10;;;;;;;3.40;74.58;100463.59;6173967;28;20050;-75
2023/11/22 14:14:21;;;;;;;7.40;3.83;;;;;;;3.30;74.17;100475.84;6175269;28;20082;-76